Los Angeles, CA

3:26 PM PDT on September 23, 2014 (GMT -0700)
Porter Ranch | Change Station
CLOSE
Current Station
Personal Weather Station
Location: Northridge, CA
Elevation: 1437 ft
Nearby Weather Stations

Elev 1437 ft 34.29 °N, 118.54 °W | Updated 1 minute ago

Clear
Clear
90.3 °F
Feels Like 87 °F
N
0.4
Wind Variable Wind from ESE
Gusts 19.2 mph

Today
High -- | Low -- °F
--% Chance of Precip.
Yesterday
High -- | Low -- °F
Precip. -- in
6:42 AM 6:49 PM
Waning Crescent, 0% visible
Pressure 29.88 in
Visibility 10.0 miles
Clouds Clear
Heat Index 87 °F
Dew Point 46 °F
Humidity 22%
Rainfall 0.00 in
Snow Depth 0 in , 0 in , 0 in
UV 6 out of 12
Pollen 5.70 out of 12
Ozone Good
PM2.5 Moderate
Flu Activity Not available.
METAR KVNY 232151Z VRB05KT 10SM CLR 34/02 A2991 RMK AO2 SLP117 T03390017

More Conditions Fewer Conditions

Pressure 29.88 in
Visibility 10.0 miles
Clouds Clear
Heat Index 87 °F
Dew Point 46 °F
Humidity 22%
Rainfall 0.00 in
Snow Depth 0 in , 0 in , 0 in
UV 6 out of 12
Pollen 5.70 out of 12
Ozone Good
PM2.5 Moderate
Flu Activity Not available.
METAR KVNY 232151Z VRB05KT 10SM CLR 34/02 A2991 RMK AO2 SLP117 T03390017

More Conditions Fewer Conditions

10-Day Weather Forecast

Almanac

Astronomy

Sep. 23, 2014 Rise Set
Actual Time 6:42 AM PDT 6:49 PM PDT
Civil Twilight 6:17 AM PDT 7:14 PM PDT
Nautical Twilight 5:48 AM PDT 7:43 PM PDT
Astronomical Twilight 5:19 AM PDT 8:13 PM PDT
Moon 6:12 AM PDT 6:31 PM PDT
Length of Visible Light 12h 56m
Length of Day
12h 06m
Tomorrow will be 2m 7s shorter.
Waning Crescent, 0% of the Moon is Illuminated
Today
Waning Crescent
Sep 24
New
Oct 1
First Quarter
Oct 8
Full
Oct 15
Last Quarter

Today's Extremes

State Highs State Lows

Community

WunderPhotos

Upload Photos

1,755,801 photos uploaded!

WunderBlogs® & News

Nearby

Air Quality

  Air Quality AQ Index Pollutant
Yesterday Moderate
PM2.5
Yesterday Good
OZONE
Current Moderate
PM2.5
Current Good
OZONE
Wednesday Good
PM10
Wednesday Moderate
OZONE
Wednesday Good
CO
Wednesday Good
NO2

Snow Depth

Station Depth Elevation
Summit Meadow 0 in 9122 ft
Leavitt Meadows 0 in 7200 ft
CSS Lab 0 in 6900 ft
Adin Mountain 0 in 6200 ft

Earthquake Activity

City Distance Mag. Time & Date
Running Springs, California 86 miles 2.5 7:26 AM PDT
2014-09-22
Minimum magnitude displayed is 2.5.

Coastal Water Temperatures

Place Temperature
Santa Monica Pier 71.1 °F
Los Angeles, CA 66.9 °F
La Jolla, CA 64.9 °F

Nearby Weather Stations